8II5 weather

Holt Field
Hoagland, Indiana, United States

Public forecast

Using degrees Fahrenheit for public forecast. Weather courtesy of forecast.io.

METAR (pilot weather report)

Closest report is Fort Wayne International Airport, 10.0 nm (18.6 km) WNW. Retrieved 2019/04/18 21:08 UTC (49 minutes ago):

KFWA 182108Z 27018KT 5SM -RA BR SCT011 BKN019 OVC030 16/14 A2961

TAF (pilot weather forecast)

Closest forecast is Fort Wayne International Airport, 10.0 nm (18.6 km) WNW. Retrieved 2019/04/18 18:22 UTC (4 hours ago):

TAF KFWA 181720Z 1818/1918 22020G30KT P6SM -SHRA SCT015 OVC035 TEMPO 1820/1824 3SM SHRA BR OVC015 FM190000 32012G20KT 4SM SHRA BR OVC015 FM190800 36011KT 4SM -SHRA BR OVC008